Airport Name : Campo Delio Jardim De Mattos

Other Name : Rio De Janeiro

ICAO : SBAF

IATA :

FAA :

Latitude : -22.875083

Longitude : -43.384708

Country : Brazil

Local Date and Time : 1/22/2018 2:05:00 PM

 

TAF (Terminal Aerodrome Forecast)

 

METAR (METeorological Aerodrome Report)

SBAF 221500Z 19006KT 9999 SCT040 34/26 Q1010

SBAF 221400Z 17002KT 9999 FEW030 SCT100 32/24 Q1010

SBAF 221300Z 12003KT 9999 FEW040 33/24 Q1011